Time,TemperatureF,DewpointF,PressureIn,WindDirection,WindDirectionDegrees,WindSpeedMPH,WindSpeedGustMPH,Humidity,HourlyPrecipIn,Conditions,Clouds,dailyrainin,SoftwareType,DateUTC
2013-07-23 00:01:00,68.0,59.0,29.81,WSW,241,0.0,-999.0,74,-99.99,,,-99.99,,2013-07-23 07:01:00,
2013-07-23 00:11:00,68.0,60.0,29.81,WSW,241,0.0,-999.0,75,-99.99,,,-99.99,,2013-07-23 07:11:00,
2013-07-23 00:32:00,68.0,59.0,29.80,WSW,242,1.0,-999.0,74,-99.99,,,-99.99,,2013-07-23 07:32:00,
2013-07-23 00:42:00,68.0,59.0,29.80,WSW,242,0.0,-999.0,74,-99.99,,,-99.99,,2013-07-23 07:42:00,
2013-07-23 01:01:00,68.0,60.0,29.80,WSW,242,0.0,-999.0,75,-99.99,,,-99.99,,2013-07-23 08:01:00,
2013-07-23 01:11:00,68.0,60.0,29.81,WSW,242,0.0,-999.0,76,-99.99,,,-99.99,,2013-07-23 08:11:00,
2013-07-23 01:33:00,68.0,61.0,29.80,WSW,242,0.0,-999.0,77,-99.99,,,-99.99,,2013-07-23 08:33:00,
2013-07-23 01:43:00,67.0,60.0,29.80,WSW,242,0.0,-999.0,77,-99.99,,,-99.99,,2013-07-23 08:43:00,
2013-07-23 01:52:00,67.0,60.0,29.80,WSW,242,0.0,-999.0,77,-99.99,,,-99.99,,2013-07-23 08:52:00,
2013-07-23 02:01:00,67.0,60.0,29.80,WSW,242,0.0,-999.0,78,-99.99,,,-99.99,,2013-07-23 09:01:00,
2013-07-23 02:11:00,67.0,60.0,29.80,WSW,242,0.0,-999.0,78,-99.99,,,-99.99,,2013-07-23 09:11:00,
2013-07-23 02:33:00,67.0,60.0,29.80,WSW,242,0.0,-999.0,78,-99.99,,,-99.99,,2013-07-23 09:33:00,
2013-07-23 02:42:00,67.0,60.0,29.80,WSW,242,0.0,-999.0,78,-99.99,,,-99.99,,2013-07-23 09:42:00,
2013-07-23 02:52:00,67.0,60.0,29.80,WSW,242,0.0,-999.0,78,-99.99,,,-99.99,,2013-07-23 09:52:00,
2013-07-23 03:01:00,67.0,60.0,29.79,WSW,242,0.0,-999.0,78,-99.99,,,-99.99,,2013-07-23 10:01:00,
2013-07-23 03:11:00,66.0,59.0,29.79,WSW,242,0.0,-999.0,78,-99.99,,,-99.99,,2013-07-23 10:11:00,
2013-07-23 03:21:00,66.0,59.0,29.79,WSW,242,0.0,-999.0,78,-99.99,,,-99.99,,2013-07-23 10:21:00,
2013-07-23 03:32:00,66.0,59.0,29.79,WSW,242,0.0,-999.0,78,-99.99,,,-99.99,,2013-07-23 10:32:00,
2013-07-23 03:43:00,66.0,59.0,29.79,WSW,242,0.0,-999.0,78,-99.99,,,-99.99,,2013-07-23 10:43:00,
2013-07-23 04:01:00,66.0,59.0,29.79,WSW,242,0.0,-999.0,78,-99.99,,,-99.99,,2013-07-23 11:01:00,
2013-07-23 04:11:00,66.0,59.0,29.78,WSW,242,0.0,-999.0,78,-99.99,,,-99.99,,2013-07-23 11:11:00,
2013-07-23 04:21:00,66.0,59.0,29.78,WSW,242,0.0,-999.0,78,-99.99,,,-99.99,,2013-07-23 11:21:00,
2013-07-23 04:32:00,66.0,59.0,29.78,WSW,242,0.0,-999.0,79,-99.99,,,-99.99,,2013-07-23 11:32:00,
2013-07-23 04:43:00,67.0,60.0,29.78,WSW,242,0.0,-999.0,78,-99.99,,,-99.99,,2013-07-23 11:43:00,
2013-07-23 04:52:00,67.0,60.0,29.78,WSW,242,0.0,-999.0,78,-99.99,,,-99.99,,2013-07-23 11:52:00,
2013-07-23 05:02:00,67.0,60.0,29.78,WSW,242,0.0,-999.0,78,-99.99,,,-99.99,,2013-07-23 12:02:00,
2013-07-23 05:11:00,67.0,60.0,29.79,WSW,242,0.0,-999.0,78,-99.99,,,-99.99,,2013-07-23 12:11:00,
2013-07-23 05:33:00,67.0,60.0,29.79,WSW,242,0.0,-999.0,78,-99.99,,,-99.99,,2013-07-23 12:33:00,
2013-07-23 05:43:00,67.0,60.0,29.79,WSW,242,0.0,-999.0,77,-99.99,,,-99.99,,2013-07-23 12:43:00,
2013-07-23 06:32:00,66.0,60.0,29.80,WSW,242,0.0,-999.0,80,-99.99,,,-99.99,,2013-07-23 13:32:00,
2013-07-23 06:43:00,66.0,60.0,29.81,WSW,242,0.0,-999.0,81,-99.99,,,-99.99,,2013-07-23 13:43:00,
2013-07-23 06:52:00,66.0,60.0,29.81,WSW,242,0.0,-999.0,81,-99.99,,,-99.99,,2013-07-23 13:52:00,
2013-07-23 07:02:00,66.0,60.0,29.80,WSW,242,0.0,-999.0,80,-99.99,,,-99.99,,2013-07-23 14:02:00,
2013-07-23 07:22:00,67.0,60.0,29.81,WSW,242,0.0,-999.0,78,-99.99,,,-99.99,,2013-07-23 14:22:00,
2013-07-23 07:32:00,69.0,60.0,29.82,WSW,242,0.0,-999.0,74,-99.99,,,-99.99,,2013-07-23 14:32:00,
2013-07-23 07:44:00,70.0,60.0,29.82,WSW,242,0.0,-999.0,71,-99.99,,,-99.99,,2013-07-23 14:44:00,
2013-07-23 07:53:00,70.0,60.0,29.82,WSW,242,0.0,-999.0,71,-99.99,,,-99.99,,2013-07-23 14:53:00,
2013-07-23 08:03:00,72.0,60.0,29.82,North,360,1.0,-999.0,66,-99.99,,,-99.99,,2013-07-23 15:03:00,
2013-07-23 08:24:00,73.0,60.0,29.82,NW,320,0.0,-999.0,64,-99.99,,,-99.99,,2013-07-23 15:24:00,
2013-07-23 08:32:00,74.0,61.0,29.82,NNW,329,1.0,-999.0,65,-99.99,,,-99.99,,2013-07-23 15:32:00,
2013-07-23 08:43:00,74.0,61.0,29.82,NW,323,3.0,-999.0,64,-99.99,,,-99.99,,2013-07-23 15:43:00,
2013-07-23 08:52:00,74.0,61.0,29.82,NW,323,3.0,-999.0,64,-99.99,,,-99.99,,2013-07-23 15:52:00,
2013-07-23 09:01:00,75.0,61.0,29.82,NNE,22,3.0,-999.0,62,-99.99,,,-99.99,,2013-07-23 16:01:00,
2013-07-23 09:12:00,76.0,61.0,29.82,NNE,16,4.0,-999.0,60,-99.99,,,-99.99,,2013-07-23 16:12:00,
2013-07-23 09:33:00,77.0,61.0,29.82,NNW,345,4.0,-999.0,58,-99.99,,,-99.99,,2013-07-23 16:33:00,
2013-07-23 09:43:00,78.0,60.0,29.82,NNW,342,3.0,-999.0,54,-99.99,,,-99.99,,2013-07-23 16:43:00,
2013-07-23 09:52:00,79.0,60.0,29.81,North,360,3.0,-999.0,53,-99.99,,,-99.99,,2013-07-23 16:52:00,
2013-07-23 10:02:00,79.0,60.0,29.81,North,360,3.0,-999.0,53,-99.99,,,-99.99,,2013-07-23 17:02:00,
2013-07-23 10:11:00,80.0,60.0,29.81,NNE,24,3.0,-999.0,51,-99.99,,,-99.99,,2013-07-23 17:11:00,
2013-07-23 10:21:00,80.0,60.0,29.81,NNE,24,3.0,-999.0,51,-99.99,,,-99.99,,2013-07-23 17:21:00,
2013-07-23 10:32:00,81.0,60.0,29.81,North,360,3.0,-999.0,49,-99.99,,,-99.99,,2013-07-23 17:32:00,
2013-07-23 10:42:00,82.0,60.0,29.81,NNE,17,3.0,-999.0,48,-99.99,,,-99.99,,2013-07-23 17:42:00,
2013-07-23 10:53:00,82.0,60.0,29.81,NNE,17,3.0,-999.0,48,-99.99,,,-99.99,,2013-07-23 17:53:00,
2013-07-23 11:02:00,83.0,61.0,29.80,North,360,4.0,-999.0,48,-99.99,,,-99.99,,2013-07-23 18:02:00,
2013-07-23 11:11:00,83.0,59.0,29.80,NNE,26,4.0,-999.0,45,-99.99,,,-99.99,,2013-07-23 18:11:00,
2013-07-23 11:22:00,83.0,59.0,29.80,NNE,26,4.0,-999.0,45,-99.99,,,-99.99,,2013-07-23 18:22:00,
2013-07-23 11:32:00,84.0,61.0,29.80,North,360,4.0,-999.0,46,-99.99,,,-99.99,,2013-07-23 18:32:00,
2013-07-23 11:44:00,84.0,60.0,29.79,NNW,333,5.0,-999.0,44,-99.99,,,-99.99,,2013-07-23 18:44:00,
2013-07-23 12:01:00,85.0,60.0,29.79,North,360,4.0,-999.0,43,-99.99,,,-99.99,,2013-07-23 19:01:00,
2013-07-23 12:21:00,85.0,59.0,29.79,North,11,4.0,-999.0,42,-99.99,,,-99.99,,2013-07-23 19:21:00,
2013-07-23 12:32:00,85.0,59.0,29.78,NNE,25,4.0,-999.0,41,-99.99,,,-99.99,,2013-07-23 19:32:00,
2013-07-23 12:44:00,85.0,58.0,29.78,NNW,331,4.0,-999.0,40,-99.99,,,-99.99,,2013-07-23 19:44:00,
2013-07-23 12:52:00,85.0,58.0,29.78,NNW,331,4.0,-999.0,40,-99.99,,,-99.99,,2013-07-23 19:52:00,
2013-07-23 13:02:00,87.0,58.0,29.77,NNW,329,4.0,-999.0,38,-99.99,,,-99.99,,2013-07-23 20:02:00,
2013-07-23 13:32:00,87.0,57.0,29.75,North,360,4.0,-999.0,36,-99.99,,,-99.99,,2013-07-23 20:32:00,
2013-07-23 13:52:00,88.0,58.0,29.75,NW,317,4.0,-999.0,36,-99.99,,,-99.99,,2013-07-23 20:52:00,
2013-07-23 14:02:00,88.0,58.0,29.75,NW,317,4.0,-999.0,36,-99.99,,,-99.99,,2013-07-23 21:02:00,
2013-07-23 14:12:00,87.0,58.0,29.75,North,11,5.0,-999.0,37,-99.99,,,-99.99,,2013-07-23 21:12:00,
2013-07-23 14:22:00,87.0,58.0,29.75,North,11,5.0,-999.0,37,-99.99,,,-99.99,,2013-07-23 21:22:00,
2013-07-23 14:32:00,88.0,58.0,29.74,NNW,333,3.0,-999.0,36,-99.99,,,-99.99,,2013-07-23 21:32:00,
2013-07-23 14:45:00,88.0,59.0,29.73,North,349,5.0,-999.0,38,-99.99,,,-99.99,,2013-07-23 21:45:00,
2013-07-23 14:52:00,88.0,59.0,29.73,North,349,5.0,-999.0,38,-99.99,,,-99.99,,2013-07-23 21:52:00,
2013-07-23 15:02:00,88.0,58.0,29.73,NNW,340,4.0,-999.0,37,-99.99,,,-99.99,,2013-07-23 22:02:00,
2013-07-23 15:11:00,87.0,58.0,29.72,NNW,334,5.0,-999.0,38,-99.99,,,-99.99,,2013-07-23 22:11:00,
2013-07-23 15:22:00,87.0,58.0,29.72,NNW,334,5.0,-999.0,38,-99.99,,,-99.99,,2013-07-23 22:22:00,
2013-07-23 15:32:00,87.0,58.0,29.72,NW,326,4.0,-999.0,38,-99.99,,,-99.99,,2013-07-23 22:32:00,
2013-07-23 15:43:00,86.0,57.0,29.71,NNW,339,4.0,-999.0,38,-99.99,,,-99.99,,2013-07-23 22:43:00,
2013-07-23 15:53:00,86.0,57.0,29.71,NNW,339,4.0,-999.0,38,-99.99,,,-99.99,,2013-07-23 22:53:00,
2013-07-23 16:02:00,86.0,57.0,29.71,NNE,22,5.0,-999.0,38,-99.99,,,-99.99,,2013-07-23 23:02:00,
2013-07-23 16:33:00,84.0,63.0,29.71,ESE,102,6.0,-999.0,49,-99.99,,,-99.99,,2013-07-23 23:33:00,
2013-07-23 16:43:00,76.0,64.0,29.71,SE,140,9.0,-999.0,66,-99.99,,,-99.99,,2013-07-23 23:43:00,
2013-07-23 16:53:00,75.0,65.0,29.71,SSW,200,6.0,-999.0,71,-99.99,,,-99.99,,2013-07-23 23:53:00,
2013-07-23 17:02:00,75.0,65.0,29.71,SSW,200,6.0,-999.0,71,-99.99,,,-99.99,,2013-07-24 00:02:00,
2013-07-23 17:22:00,73.0,63.0,29.70,West,270,7.0,-999.0,72,-99.99,,,-99.99,,2013-07-24 00:22:00,
2013-07-23 17:32:00,73.0,63.0,29.70,West,271,6.0,-999.0,71,-99.99,,,-99.99,,2013-07-24 00:32:00,
2013-07-23 17:44:00,75.0,61.0,29.70,WNW,301,9.0,-999.0,61,-99.99,,,-99.99,,2013-07-24 00:44:00,
2013-07-23 17:52:00,75.0,61.0,29.70,WNW,301,9.0,-999.0,61,-99.99,,,-99.99,,2013-07-24 00:52:00,
2013-07-23 18:21:00,77.0,59.0,29.69,West,267,9.0,-999.0,54,-99.99,,,-99.99,,2013-07-24 01:21:00,
2013-07-23 18:32:00,77.0,59.0,29.70,NW,307,7.0,-999.0,54,-99.99,,,-99.99,,2013-07-24 01:32:00,
2013-07-23 18:43:00,77.0,60.0,29.69,WNW,289,5.0,-999.0,55,-99.99,,,-99.99,,2013-07-24 01:43:00,
2013-07-23 18:53:00,77.0,60.0,29.69,WNW,289,5.0,-999.0,55,-99.99,,,-99.99,,2013-07-24 01:53:00,
2013-07-23 19:02:00,77.0,60.0,29.70,WNW,298,6.0,-999.0,55,-99.99,,,-99.99,,2013-07-24 02:02:00,
2013-07-23 19:12:00,77.0,60.0,29.70,NW,307,4.0,-999.0,56,-99.99,,,-99.99,,2013-07-24 02:12:00,
2013-07-23 19:33:00,76.0,59.0,29.70,WNW,286,5.0,-999.0,56,-99.99,,,-99.99,,2013-07-24 02:33:00,
2013-07-23 19:44:00,76.0,58.0,29.70,WNW,294,5.0,-999.0,54,-99.99,,,-99.99,,2013-07-24 02:44:00,
2013-07-23 19:52:00,76.0,58.0,29.70,WNW,294,5.0,-999.0,54,-99.99,,,-99.99,,2013-07-24 02:52:00,
2013-07-23 20:02:00,76.0,58.0,29.71,West,274,5.0,-999.0,54,-99.99,,,-99.99,,2013-07-24 03:02:00,
2013-07-23 20:11:00,76.0,58.0,29.72,West,280,4.0,-999.0,53,-99.99,,,-99.99,,2013-07-24 03:11:00,
2013-07-23 20:22:00,76.0,58.0,29.72,West,280,4.0,-999.0,53,-99.99,,,-99.99,,2013-07-24 03:22:00,
2013-07-23 20:32:00,76.0,63.0,29.74,NNW,342,0.0,-999.0,65,-99.99,,,-99.99,,2013-07-24 03:32:00,
2013-07-23 20:43:00,76.0,64.0,29.73,NNW,342,0.0,-999.0,67,-99.99,,,-99.99,,2013-07-24 03:43:00,
2013-07-23 20:53:00,76.0,64.0,29.73,NNW,342,0.0,-999.0,67,-99.99,,,-99.99,,2013-07-24 03:53:00,
2013-07-23 21:01:00,74.0,64.0,29.74,NNW,342,0.0,-999.0,71,-99.99,,,-99.99,,2013-07-24 04:01:00,
2013-07-23 21:11:00,74.0,64.0,29.75,NNW,342,0.0,-999.0,72,-99.99,,,-99.99,,2013-07-24 04:11:00,
2013-07-23 21:22:00,74.0,64.0,29.75,NNW,342,0.0,-999.0,72,-99.99,,,-99.99,,2013-07-24 04:22:00,
2013-07-23 21:32:00,73.0,65.0,29.75,NNW,342,0.0,-999.0,76,-99.99,,,-99.99,,2013-07-24 04:32:00,
2013-07-23 21:43:00,73.0,66.0,29.76,NNW,342,0.0,-999.0,78,-99.99,,,-99.99,,2013-07-24 04:43:00,
2013-07-23 21:52:00,73.0,66.0,29.76,NNW,342,0.0,-999.0,78,-99.99,,,-99.99,,2013-07-24 04:52:00,
2013-07-23 22:02:00,72.0,65.0,29.78,NNW,342,0.0,-999.0,79,-99.99,,,-99.99,,2013-07-24 05:02:00,
2013-07-23 22:11:00,72.0,64.0,29.79,NE,36,3.0,-999.0,77,-99.99,,,-99.99,,2013-07-24 05:11:00,
2013-07-23 22:32:00,71.0,64.0,29.79,ENE,74,1.0,-999.0,78,-99.99,,,-99.99,,2013-07-24 05:32:00,
2013-07-23 22:43:00,70.0,63.0,29.80,ENE,74,0.0,-999.0,79,-99.99,,,-99.99,,2013-07-24 05:43:00,
2013-07-23 22:52:00,70.0,63.0,29.80,ENE,74,0.0,-999.0,79,-99.99,,,-99.99,,2013-07-24 05:52:00,
2013-07-23 23:01:00,69.0,62.0,29.79,South,180,2.0,-999.0,79,-99.99,,,-99.99,,2013-07-24 06:01:00,
2013-07-23 23:24:00,69.0,62.0,29.78,WSW,245,1.0,-999.0,79,-99.99,,,-99.99,,2013-07-24 06:24:00,
2013-07-23 23:34:00,69.0,62.0,29.77,WSW,245,0.0,-999.0,78,-99.99,,,-99.99,,2013-07-24 06:34:00,
2013-07-23 23:43:00,69.0,62.0,29.77,WSW,245,0.0,-999.0,78,-99.99,,,-99.99,,2013-07-24 06:43:00,
2013-07-23 23:53:00,69.0,62.0,29.77,WSW,245,0.0,-999.0,78,-99.99,,,-99.99,,2013-07-24 06:53:00,